sensor_id;sensor_type;location;lat;lon;timestamp;P1;durP1;ratioP1;P2;durP2;ratioP2
52458;SDS011;38372;52.902;6.024;2023-07-22T00:00:15;3.58;;;1.98;;
52458;SDS011;38372;52.902;6.024;2023-07-22T00:02:42;4.30;;;1.70;;
52458;SDS011;38372;52.902;6.024;2023-07-22T00:05:07;3.00;;;1.75;;
52458;SDS011;38372;52.902;6.024;2023-07-22T00:07:35;3.40;;;1.42;;
52458;SDS011;38372;52.902;6.024;2023-07-22T00:10:01;6.75;;;1.60;;
52458;SDS011;38372;52.902;6.024;2023-07-22T00:12:28;2.55;;;1.40;;
52458;SDS011;38372;52.902;6.024;2023-07-22T00:14:53;3.17;;;1.40;;
52458;SDS011;38372;52.902;6.024;2023-07-22T00:17:19;3.88;;;1.25;;
52458;SDS011;38372;52.902;6.024;2023-07-22T00:19:46;7.10;;;2.22;;
52458;SDS011;38372;52.902;6.024;2023-07-22T00:22:13;4.88;;;1.92;;
52458;SDS011;38372;52.902;6.024;2023-07-22T00:24:40;4.70;;;1.55;;
52458;SDS011;38372;52.902;6.024;2023-07-22T00:27:06;2.47;;;1.27;;
52458;SDS011;38372;52.902;6.024;2023-07-22T00:29:34;3.28;;;1.65;;
52458;SDS011;38372;52.902;6.024;2023-07-22T00:32:00;6.88;;;1.63;;
52458;SDS011;38372;52.902;6.024;2023-07-22T00:34:26;3.75;;;1.25;;
52458;SDS011;38372;52.902;6.024;2023-07-22T00:36:52;2.75;;;0.88;;
52458;SDS011;38372;52.902;6.024;2023-07-22T00:39:17;4.90;;;2.17;;
52458;SDS011;38372;52.902;6.024;2023-07-22T00:41:44;2.28;;;1.13;;
52458;SDS011;38372;52.902;6.024;2023-07-22T00:44:10;3.10;;;1.27;;
52458;SDS011;38372;52.902;6.024;2023-07-22T00:46:37;4.75;;;1.88;;
52458;SDS011;38372;52.902;6.024;2023-07-22T00:49:05;4.35;;;1.55;;
52458;SDS011;38372;52.902;6.024;2023-07-22T00:51:32;5.80;;;1.38;;
52458;SDS011;38372;52.902;6.024;2023-07-22T00:53:58;5.30;;;1.42;;
52458;SDS011;38372;52.902;6.024;2023-07-22T00:56:24;1.77;;;1.13;;
52458;SDS011;38372;52.902;6.024;2023-07-22T00:58:50;5.97;;;1.25;;
52458;SDS011;38372;52.902;6.024;2023-07-22T01:01:17;2.17;;;1.02;;
52458;SDS011;38372;52.902;6.024;2023-07-22T01:03:43;3.30;;;1.20;;
52458;SDS011;38372;52.902;6.024;2023-07-22T01:06:11;5.38;;;1.58;;
52458;SDS011;38372;52.902;6.024;2023-07-22T01:08:39;3.25;;;1.10;;
52458;SDS011;38372;52.902;6.024;2023-07-22T01:11:05;3.40;;;1.38;;
52458;SDS011;38372;52.902;6.024;2023-07-22T01:13:31;4.55;;;0.80;;
52458;SDS011;38372;52.902;6.024;2023-07-22T01:15:57;5.03;;;1.77;;
52458;SDS011;38372;52.902;6.024;2023-07-22T01:18:23;1.92;;;1.13;;
52458;SDS011;38372;52.902;6.024;2023-07-22T01:20:49;2.53;;;1.17;;
52458;SDS011;38372;52.902;6.024;2023-07-22T01:23:16;3.70;;;1.75;;
52458;SDS011;38372;52.902;6.024;2023-07-22T01:25:42;3.95;;;1.33;;
52458;SDS011;38372;52.902;6.024;2023-07-22T01:28:09;3.30;;;1.23;;
52458;SDS011;38372;52.902;6.024;2023-07-22T01:30:36;2.28;;;0.95;;
52458;SDS011;38372;52.902;6.024;2023-07-22T01:33:01;2.65;;;1.23;;
52458;SDS011;38372;52.902;6.024;2023-07-22T01:35:28;3.78;;;1.35;;
52458;SDS011;38372;52.902;6.024;2023-07-22T01:37:54;5.13;;;1.38;;
52458;SDS011;38372;52.902;6.024;2023-07-22T01:40:20;5.35;;;1.58;;
52458;SDS011;38372;52.902;6.024;2023-07-22T01:42:46;5.57;;;2.17;;
52458;SDS011;38372;52.902;6.024;2023-07-22T01:45:11;2.83;;;1.35;;
52458;SDS011;38372;52.902;6.024;2023-07-22T01:47:38;6.82;;;1.15;;
52458;SDS011;38372;52.902;6.024;2023-07-22T01:50:04;3.33;;;1.75;;
52458;SDS011;38372;52.902;6.024;2023-07-22T01:52:34;3.55;;;1.55;;
52458;SDS011;38372;52.902;6.024;2023-07-22T01:54:59;4.10;;;1.40;;
52458;SDS011;38372;52.902;6.024;2023-07-22T01:57:26;5.93;;;1.98;;
52458;SDS011;38372;52.902;6.024;2023-07-22T01:59:51;3.97;;;1.70;;
52458;SDS011;38372;52.902;6.024;2023-07-22T02:02:18;3.38;;;0.95;;
52458;SDS011;38372;52.902;6.024;2023-07-22T02:04:44;2.85;;;1.25;;
52458;SDS011;38372;52.902;6.024;2023-07-22T02:07:10;4.28;;;1.50;;
52458;SDS011;38372;52.902;6.024;2023-07-22T02:09:36;3.72;;;1.45;;
52458;SDS011;38372;52.902;6.024;2023-07-22T02:12:02;2.28;;;1.10;;
52458;SDS011;38372;52.902;6.024;2023-07-22T02:14:28;4.47;;;1.27;;
52458;SDS011;38372;52.902;6.024;2023-07-22T02:16:53;3.83;;;1.50;;
52458;SDS011;38372;52.902;6.024;2023-07-22T02:19:19;3.85;;;1.63;;
52458;SDS011;38372;52.902;6.024;2023-07-22T02:21:45;2.75;;;1.40;;
52458;SDS011;38372;52.902;6.024;2023-07-22T02:24:12;2.88;;;1.45;;
52458;SDS011;38372;52.902;6.024;2023-07-22T02:26:40;7.22;;;1.80;;
52458;SDS011;38372;52.902;6.024;2023-07-22T02:29:05;3.75;;;1.80;;
52458;SDS011;38372;52.902;6.024;2023-07-22T02:31:32;3.75;;;1.65;;
52458;SDS011;38372;52.902;6.024;2023-07-22T02:33:58;6.75;;;1.25;;
52458;SDS011;38372;52.902;6.024;2023-07-22T02:36:24;2.92;;;1.25;;
52458;SDS011;38372;52.902;6.024;2023-07-22T02:38:50;3.38;;;1.42;;
52458;SDS011;38372;52.902;6.024;2023-07-22T02:41:15;4.10;;;1.60;;
52458;SDS011;38372;52.902;6.024;2023-07-22T02:43:41;3.20;;;1.02;;
52458;SDS011;38372;52.902;6.024;2023-07-22T02:46:08;2.90;;;1.27;;
52458;SDS011;38372;52.902;6.024;2023-07-22T02:48:34;4.90;;;1.92;;
52458;SDS011;38372;52.902;6.024;2023-07-22T02:51:07;4.03;;;1.48;;
52458;SDS011;38372;52.902;6.024;2023-07-22T02:53:33;4.15;;;1.08;;
52458;SDS011;38372;52.902;6.024;2023-07-22T02:56:02;2.55;;;1.00;;
52458;SDS011;38372;52.902;6.024;2023-07-22T02:58:29;3.35;;;1.25;;
52458;SDS011;38372;52.902;6.024;2023-07-22T03:00:54;6.35;;;1.80;;
52458;SDS011;38372;52.902;6.024;2023-07-22T03:03:22;4.35;;;1.63;;
52458;SDS011;38372;52.902;6.024;2023-07-22T03:05:48;2.08;;;1.08;;
52458;SDS011;38372;52.902;6.024;2023-07-22T03:08:14;3.55;;;1.88;;
52458;SDS011;38372;52.902;6.024;2023-07-22T03:10:40;3.42;;;1.23;;
52458;SDS011;38372;52.902;6.024;2023-07-22T03:13:09;4.32;;;1.58;;
52458;SDS011;38372;52.902;6.024;2023-07-22T03:15:34;2.90;;;1.63;;
52458;SDS011;38372;52.902;6.024;2023-07-22T03:18:00;5.05;;;1.50;;
52458;SDS011;38372;52.902;6.024;2023-07-22T03:20:26;3.50;;;1.67;;
52458;SDS011;38372;52.902;6.024;2023-07-22T03:22:52;3.47;;;1.40;;
52458;SDS011;38372;52.902;6.024;2023-07-22T03:25:19;3.30;;;1.52;;
52458;SDS011;38372;52.902;6.024;2023-07-22T03:27:45;9.88;;;1.98;;
52458;SDS011;38372;52.902;6.024;2023-07-22T03:30:12;2.88;;;1.30;;
52458;SDS011;38372;52.902;6.024;2023-07-22T03:32:40;3.17;;;1.30;;
52458;SDS011;38372;52.902;6.024;2023-07-22T03:35:08;5.43;;;1.55;;
52458;SDS011;38372;52.902;6.024;2023-07-22T03:37:37;4.63;;;1.30;;
52458;SDS011;38372;52.902;6.024;2023-07-22T03:40:03;4.50;;;1.35;;
52458;SDS011;38372;52.902;6.024;2023-07-22T03:42:36;2.17;;;1.10;;
52458;SDS011;38372;52.902;6.024;2023-07-22T03:45:01;3.67;;;1.65;;
52458;SDS011;38372;52.902;6.024;2023-07-22T03:47:27;7.32;;;1.92;;
52458;SDS011;38372;52.902;6.024;2023-07-22T03:49:53;6.10;;;2.13;;
52458;SDS011;38372;52.902;6.024;2023-07-22T03:52:19;3.38;;;1.42;;
52458;SDS011;38372;52.902;6.024;2023-07-22T03:54:45;3.47;;;1.23;;
52458;SDS011;38372;52.902;6.024;2023-07-22T03:57:11;1.90;;;1.08;;
52458;SDS011;38372;52.902;6.024;2023-07-22T03:59:36;2.90;;;1.30;;
52458;SDS011;38372;52.902;6.024;2023-07-22T04:02:04;3.50;;;1.00;;
52458;SDS011;38372;52.902;6.024;2023-07-22T04:04:30;4.90;;;1.75;;
52458;SDS011;38372;52.902;6.024;2023-07-22T04:06:56;4.25;;;1.60;;
52458;SDS011;38372;52.902;6.024;2023-07-22T04:09:22;3.97;;;2.13;;
52458;SDS011;38372;52.902;6.024;2023-07-22T04:11:48;4.28;;;1.70;;
52458;SDS011;38372;52.902;6.024;2023-07-22T04:14:14;5.45;;;1.38;;
52458;SDS011;38372;52.902;6.024;2023-07-22T04:16:40;6.28;;;2.30;;
52458;SDS011;38372;52.902;6.024;2023-07-22T04:19:06;2.85;;;1.20;;
52458;SDS011;38372;52.902;6.024;2023-07-22T04:21:32;3.15;;;1.73;;
52458;SDS011;38372;52.902;6.024;2023-07-22T04:23:58;4.60;;;1.65;;
52458;SDS011;38372;52.902;6.024;2023-07-22T04:26:24;9.55;;;1.70;;
52458;SDS011;38372;52.902;6.024;2023-07-22T04:28:49;7.30;;;2.35;;
52458;SDS011;38372;52.902;6.024;2023-07-22T04:31:15;5.05;;;2.58;;
52458;SDS011;38372;52.902;6.024;2023-07-22T04:33:41;4.95;;;1.58;;
52458;SDS011;38372;52.902;6.024;2023-07-22T04:36:07;4.72;;;1.90;;
52458;SDS011;38372;52.902;6.024;2023-07-22T04:38:33;4.45;;;1.85;;
52458;SDS011;38372;52.902;6.024;2023-07-22T04:40:58;5.43;;;2.13;;
52458;SDS011;38372;52.902;6.024;2023-07-22T04:43:27;5.25;;;1.95;;
52458;SDS011;38372;52.902;6.024;2023-07-22T04:45:53;7.43;;;2.40;;
52458;SDS011;38372;52.902;6.024;2023-07-22T04:48:19;6.40;;;2.10;;
52458;SDS011;38372;52.902;6.024;2023-07-22T04:50:46;3.53;;;1.42;;
52458;SDS011;38372;52.902;6.024;2023-07-22T04:53:12;4.88;;;2.13;;
52458;SDS011;38372;52.902;6.024;2023-07-22T04:55:39;5.60;;;1.95;;
52458;SDS011;38372;52.902;6.024;2023-07-22T04:58:05;7.55;;;2.25;;
52458;SDS011;38372;52.902;6.024;2023-07-22T05:00:31;5.32;;;1.67;;
52458;SDS011;38372;52.902;6.024;2023-07-22T05:02:58;5.15;;;1.73;;
52458;SDS011;38372;52.902;6.024;2023-07-22T05:05:25;6.03;;;1.95;;
52458;SDS011;38372;52.902;6.024;2023-07-22T05:07:51;6.18;;;2.17;;
52458;SDS011;38372;52.902;6.024;2023-07-22T05:10:18;8.68;;;2.92;;
52458;SDS011;38372;52.902;6.024;2023-07-22T05:12:44;4.68;;;1.85;;
52458;SDS011;38372;52.902;6.024;2023-07-22T05:15:10;7.60;;;3.03;;
52458;SDS011;38372;52.902;6.024;2023-07-22T05:17:37;9.07;;;2.33;;
52458;SDS011;38372;52.902;6.024;2023-07-22T05:20:03;6.18;;;2.10;;
52458;SDS011;38372;52.902;6.024;2023-07-22T05:22:39;7.75;;;2.45;;
52458;SDS011;38372;52.902;6.024;2023-07-22T05:25:05;5.80;;;2.28;;
52458;SDS011;38372;52.902;6.024;2023-07-22T05:27:32;5.32;;;1.85;;
52458;SDS011;38372;52.902;6.024;2023-07-22T05:29:58;5.50;;;2.42;;
52458;SDS011;38372;52.902;6.024;2023-07-22T05:32:24;5.43;;;2.72;;
52458;SDS011;38372;52.902;6.024;2023-07-22T05:34:50;7.07;;;2.70;;
52458;SDS011;38372;52.902;6.024;2023-07-22T05:37:16;7.50;;;2.42;;
52458;SDS011;38372;52.902;6.024;2023-07-22T05:39:42;8.75;;;2.90;;
52458;SDS011;38372;52.902;6.024;2023-07-22T05:42:07;5.88;;;2.40;;
52458;SDS011;38372;52.902;6.024;2023-07-22T05:44:33;6.53;;;3.08;;
52458;SDS011;38372;52.902;6.024;2023-07-22T05:46:59;6.45;;;2.70;;
52458;SDS011;38372;52.902;6.024;2023-07-22T05:49:25;7.18;;;2.90;;
52458;SDS011;38372;52.902;6.024;2023-07-22T05:51:51;7.22;;;2.25;;
52458;SDS011;38372;52.902;6.024;2023-07-22T05:54:17;5.95;;;2.00;;
52458;SDS011;38372;52.902;6.024;2023-07-22T05:56:43;8.57;;;3.03;;
52458;SDS011;38372;52.902;6.024;2023-07-22T05:59:08;8.15;;;3.60;;
52458;SDS011;38372;52.902;6.024;2023-07-22T06:01:34;6.32;;;2.67;;
52458;SDS011;38372;52.902;6.024;2023-07-22T06:04:00;8.73;;;3.20;;
52458;SDS011;38372;52.902;6.024;2023-07-22T06:06:27;9.27;;;3.33;;
52458;SDS011;38372;52.902;6.024;2023-07-22T06:08:52;5.57;;;2.55;;
52458;SDS011;38372;52.902;6.024;2023-07-22T06:11:18;6.38;;;2.60;;
52458;SDS011;38372;52.902;6.024;2023-07-22T06:13:44;9.10;;;2.90;;
52458;SDS011;38372;52.902;6.024;2023-07-22T06:16:10;4.43;;;1.92;;
52458;SDS011;38372;52.902;6.024;2023-07-22T06:18:36;6.22;;;2.28;;
52458;SDS011;38372;52.902;6.024;2023-07-22T06:21:01;6.22;;;2.60;;
52458;SDS011;38372;52.902;6.024;2023-07-22T06:23:27;4.43;;;1.73;;
52458;SDS011;38372;52.902;6.024;2023-07-22T06:25:53;8.90;;;2.67;;
52458;SDS011;38372;52.902;6.024;2023-07-22T06:28:19;4.38;;;2.35;;
52458;SDS011;38372;52.902;6.024;2023-07-22T06:30:45;7.07;;;2.47;;
52458;SDS011;38372;52.902;6.024;2023-07-22T06:33:11;6.15;;;2.53;;
52458;SDS011;38372;52.902;6.024;2023-07-22T06:35:36;8.23;;;2.45;;
52458;SDS011;38372;52.902;6.024;2023-07-22T06:38:02;7.53;;;2.65;;
52458;SDS011;38372;52.902;6.024;2023-07-22T06:40:28;3.72;;;1.77;;
52458;SDS011;38372;52.902;6.024;2023-07-22T06:42:54;6.72;;;2.40;;
52458;SDS011;38372;52.902;6.024;2023-07-22T06:45:19;6.50;;;2.58;;
52458;SDS011;38372;52.902;6.024;2023-07-22T06:47:45;5.47;;;2.55;;
52458;SDS011;38372;52.902;6.024;2023-07-22T06:50:12;4.63;;;2.58;;
52458;SDS011;38372;52.902;6.024;2023-07-22T06:52:37;5.75;;;2.05;;
52458;SDS011;38372;52.902;6.024;2023-07-22T06:55:04;10.93;;;2.55;;
52458;SDS011;38372;52.902;6.024;2023-07-22T06:57:30;4.97;;;2.08;;
52458;SDS011;38372;52.902;6.024;2023-07-22T06:59:56;7.55;;;2.72;;
52458;SDS011;38372;52.902;6.024;2023-07-22T07:02:22;4.63;;;1.95;;
52458;SDS011;38372;52.902;6.024;2023-07-22T07:04:48;6.65;;;2.22;;
52458;SDS011;38372;52.902;6.024;2023-07-22T07:07:15;5.18;;;2.95;;
52458;SDS011;38372;52.902;6.024;2023-07-22T07:09:41;5.57;;;2.63;;
52458;SDS011;38372;52.902;6.024;2023-07-22T07:12:07;5.90;;;2.13;;
52458;SDS011;38372;52.902;6.024;2023-07-22T07:14:33;8.45;;;3.20;;
52458;SDS011;38372;52.902;6.024;2023-07-22T07:17:00;7.80;;;3.05;;
52458;SDS011;38372;52.902;6.024;2023-07-22T07:19:26;7.28;;;2.80;;
52458;SDS011;38372;52.902;6.024;2023-07-22T07:21:53;9.00;;;2.75;;
52458;SDS011;38372;52.902;6.024;2023-07-22T07:24:19;8.00;;;2.78;;
52458;SDS011;38372;52.902;6.024;2023-07-22T07:26:45;10.18;;;3.85;;
52458;SDS011;38372;52.902;6.024;2023-07-22T07:29:11;8.00;;;3.25;;
52458;SDS011;38372;52.902;6.024;2023-07-22T07:31:37;9.55;;;3.75;;
52458;SDS011;38372;52.902;6.024;2023-07-22T07:34:04;8.88;;;3.22;;
52458;SDS011;38372;52.902;6.024;2023-07-22T07:36:31;8.73;;;3.97;;
52458;SDS011;38372;52.902;6.024;2023-07-22T07:38:57;13.65;;;5.03;;
52458;SDS011;38372;52.902;6.024;2023-07-22T07:41:23;9.00;;;5.47;;
52458;SDS011;38372;52.902;6.024;2023-07-22T07:43:49;15.23;;;3.83;;
52458;SDS011;38372;52.902;6.024;2023-07-22T07:46:16;9.02;;;3.60;;
52458;SDS011;38372;52.902;6.024;2023-07-22T07:48:47;9.95;;;4.13;;
52458;SDS011;38372;52.902;6.024;2023-07-22T07:51:15;11.18;;;4.40;;
52458;SDS011;38372;52.902;6.024;2023-07-22T07:53:42;10.02;;;3.42;;
52458;SDS011;38372;52.902;6.024;2023-07-22T07:56:15;10.02;;;4.88;;
52458;SDS011;38372;52.902;6.024;2023-07-22T07:58:42;8.45;;;3.60;;
52458;SDS011;38372;52.902;6.024;2023-07-22T08:01:09;8.20;;;3.78;;
52458;SDS011;38372;52.902;6.024;2023-07-22T08:03:35;8.05;;;3.55;;
52458;SDS011;38372;52.902;6.024;2023-07-22T08:06:02;5.28;;;3.13;;
52458;SDS011;38372;52.902;6.024;2023-07-22T08:08:28;8.38;;;3.53;;
52458;SDS011;38372;52.902;6.024;2023-07-22T08:10:58;10.43;;;4.28;;
52458;SDS011;38372;52.902;6.024;2023-07-22T08:13:25;11.32;;;3.83;;
52458;SDS011;38372;52.902;6.024;2023-07-22T08:15:52;9.95;;;3.97;;
52458;SDS011;38372;52.902;6.024;2023-07-22T08:18:18;7.60;;;3.85;;
52458;SDS011;38372;52.902;6.024;2023-07-22T08:20:44;10.38;;;3.55;;
52458;SDS011;38372;52.902;6.024;2023-07-22T08:23:12;10.70;;;3.50;;
52458;SDS011;38372;52.902;6.024;2023-07-22T08:25:38;9.02;;;4.40;;
52458;SDS011;38372;52.902;6.024;2023-07-22T08:28:04;8.25;;;3.22;;
52458;SDS011;38372;52.902;6.024;2023-07-22T08:30:30;5.85;;;3.25;;
52458;SDS011;38372;52.902;6.024;2023-07-22T08:32:55;9.35;;;3.85;;
52458;SDS011;38372;52.902;6.024;2023-07-22T08:35:21;7.38;;;3.35;;
52458;SDS011;38372;52.902;6.024;2023-07-22T08:37:47;8.25;;;2.60;;
52458;SDS011;38372;52.902;6.024;2023-07-22T08:40:13;11.32;;;3.97;;
52458;SDS011;38372;52.902;6.024;2023-07-22T08:42:40;8.20;;;4.03;;
52458;SDS011;38372;52.902;6.024;2023-07-22T08:45:07;9.68;;;4.60;;
52458;SDS011;38372;52.902;6.024;2023-07-22T08:47:45;7.05;;;3.05;;
52458;SDS011;38372;52.902;6.024;2023-07-22T08:50:12;7.70;;;3.22;;
52458;SDS011;38372;52.902;6.024;2023-07-22T08:52:44;8.77;;;3.08;;
52458;SDS011;38372;52.902;6.024;2023-07-22T08:55:12;5.13;;;2.30;;
52458;SDS011;38372;52.902;6.024;2023-07-22T08:57:38;5.20;;;1.88;;
52458;SDS011;38372;52.902;6.024;2023-07-22T09:00:05;1.45;;;0.85;;
52458;SDS011;38372;52.902;6.024;2023-07-22T09:02:34;2.80;;;1.02;;
52458;SDS011;38372;52.902;6.024;2023-07-22T09:05:03;3.47;;;1.00;;
52458;SDS011;38372;52.902;6.024;2023-07-22T09:07:29;2.03;;;0.80;;
52458;SDS011;38372;52.902;6.024;2023-07-22T09:09:56;1.88;;;0.60;;
52458;SDS011;38372;52.902;6.024;2023-07-22T09:12:23;1.27;;;0.80;;
52458;SDS011;38372;52.902;6.024;2023-07-22T09:14:50;2.50;;;0.82;;
52458;SDS011;38372;52.902;6.024;2023-07-22T09:17:17;1.42;;;0.70;;
52458;SDS011;38372;52.902;6.024;2023-07-22T09:19:43;1.98;;;0.70;;
52458;SDS011;38372;52.902;6.024;2023-07-22T09:22:08;1.48;;;0.68;;
52458;SDS011;38372;52.902;6.024;2023-07-22T09:24:34;2.38;;;0.93;;
52458;SDS011;38372;52.902;6.024;2023-07-22T09:27:00;2.53;;;0.82;;
52458;SDS011;38372;52.902;6.024;2023-07-22T09:29:38;1.75;;;1.00;;
52458;SDS011;38372;52.902;6.024;2023-07-22T09:32:09;2.75;;;1.05;;
52458;SDS011;38372;52.902;6.024;2023-07-22T09:34:35;3.35;;;1.00;;
52458;SDS011;38372;52.902;6.024;2023-07-22T09:37:01;2.53;;;1.40;;
52458;SDS011;38372;52.902;6.024;2023-07-22T09:39:28;1.17;;;0.93;;
52458;SDS011;38372;52.902;6.024;2023-07-22T09:41:55;3.10;;;1.13;;
52458;SDS011;38372;52.902;6.024;2023-07-22T09:44:21;2.22;;;1.00;;
52458;SDS011;38372;52.902;6.024;2023-07-22T09:46:50;2.63;;;1.52;;
52458;SDS011;38372;52.902;6.024;2023-07-22T09:49:17;3.78;;;1.70;;
52458;SDS011;38372;52.902;6.024;2023-07-22T09:51:43;3.88;;;1.50;;
52458;SDS011;38372;52.902;6.024;2023-07-22T09:54:09;5.85;;;1.48;;
52458;SDS011;38372;52.902;6.024;2023-07-22T09:56:49;1.83;;;0.88;;
52458;SDS011;38372;52.902;6.024;2023-07-22T10:01:43;3.75;;;1.92;;
52458;SDS011;38372;52.902;6.024;2023-07-22T10:04:12;3.90;;;1.98;;
52458;SDS011;38372;52.902;6.024;2023-07-22T10:06:41;9.10;;;1.50;;
52458;SDS011;38372;52.902;6.024;2023-07-22T10:09:09;1.98;;;1.30;;
52458;SDS011;38372;52.902;6.024;2023-07-22T10:11:37;3.05;;;1.40;;
52458;SDS011;38372;52.902;6.024;2023-07-22T10:14:04;2.30;;;1.27;;
52458;SDS011;38372;52.902;6.024;2023-07-22T10:16:30;3.00;;;1.77;;
52458;SDS011;38372;52.902;6.024;2023-07-22T10:18:57;3.28;;;1.45;;
52458;SDS011;38372;52.902;6.024;2023-07-22T10:21:24;5.68;;;1.77;;
52458;SDS011;38372;52.902;6.024;2023-07-22T10:23:51;3.67;;;2.05;;
52458;SDS011;38372;52.902;6.024;2023-07-22T10:26:17;3.55;;;1.85;;
52458;SDS011;38372;52.902;6.024;2023-07-22T10:28:45;5.35;;;2.08;;
52458;SDS011;38372;52.902;6.024;2023-07-22T10:31:13;3.50;;;1.85;;
52458;SDS011;38372;52.902;6.024;2023-07-22T10:33:44;5.78;;;2.20;;
52458;SDS011;38372;52.902;6.024;2023-07-22T10:36:14;4.15;;;1.95;;
52458;SDS011;38372;52.902;6.024;2023-07-22T10:38:43;2.85;;;1.85;;
52458;SDS011;38372;52.902;6.024;2023-07-22T10:41:19;4.72;;;1.50;;
52458;SDS011;38372;52.902;6.024;2023-07-22T10:43:53;2.78;;;1.83;;
52458;SDS011;38372;52.902;6.024;2023-07-22T10:46:34;3.95;;;2.33;;
52458;SDS011;38372;52.902;6.024;2023-07-22T10:49:09;5.50;;;2.17;;
52458;SDS011;38372;52.902;6.024;2023-07-22T10:51:39;3.47;;;1.90;;
52458;SDS011;38372;52.902;6.024;2023-07-22T10:54:15;4.07;;;1.63;;
52458;SDS011;38372;52.902;6.024;2023-07-22T10:59:49;4.35;;;1.95;;
52458;SDS011;38372;52.902;6.024;2023-07-22T11:02:25;6.60;;;2.00;;
52458;SDS011;38372;52.902;6.024;2023-07-22T11:04:52;4.65;;;2.00;;
52458;SDS011;38372;52.902;6.024;2023-07-22T11:12:53;4.93;;;2.20;;
52458;SDS011;38372;52.902;6.024;2023-07-22T11:15:19;3.58;;;1.92;;
52458;SDS011;38372;52.902;6.024;2023-07-22T11:17:48;3.50;;;1.45;;
52458;SDS011;38372;52.902;6.024;2023-07-22T11:20:13;6.03;;;1.83;;
52458;SDS011;38372;52.902;6.024;2023-07-22T11:22:40;3.47;;;1.65;;
52458;SDS011;38372;52.902;6.024;2023-07-22T11:25:06;7.55;;;2.13;;
52458;SDS011;38372;52.902;6.024;2023-07-22T11:27:32;3.90;;;2.30;;
52458;SDS011;38372;52.902;6.024;2023-07-22T11:29:58;3.00;;;1.50;;
52458;SDS011;38372;52.902;6.024;2023-07-22T11:32:24;3.95;;;1.83;;
52458;SDS011;38372;52.902;6.024;2023-07-22T11:34:52;4.63;;;2.35;;
52458;SDS011;38372;52.902;6.024;2023-07-22T11:37:18;5.70;;;2.47;;
52458;SDS011;38372;52.902;6.024;2023-07-22T11:39:44;6.55;;;2.33;;
52458;SDS011;38372;52.902;6.024;2023-07-22T11:42:11;4.60;;;2.40;;
52458;SDS011;38372;52.902;6.024;2023-07-22T11:44:37;4.35;;;2.35;;
52458;SDS011;38372;52.902;6.024;2023-07-22T11:47:04;4.53;;;2.63;;
52458;SDS011;38372;52.902;6.024;2023-07-22T11:49:43;6.05;;;2.38;;
52458;SDS011;38372;52.902;6.024;2023-07-22T11:52:16;3.17;;;2.15;;
52458;SDS011;38372;52.902;6.024;2023-07-22T11:57:13;5.28;;;2.92;;
52458;SDS011;38372;52.902;6.024;2023-07-22T11:59:47;8.85;;;2.65;;
52458;SDS011;38372;52.902;6.024;2023-07-22T12:02:18;3.90;;;1.80;;
52458;SDS011;38372;52.902;6.024;2023-07-22T12:07:21;6.47;;;2.97;;
52458;SDS011;38372;52.902;6.024;2023-07-22T12:09:49;7.95;;;2.88;;
52458;SDS011;38372;52.902;6.024;2023-07-22T12:12:15;6.13;;;2.72;;
52458;SDS011;38372;52.902;6.024;2023-07-22T12:14:40;5.55;;;2.60;;
52458;SDS011;38372;52.902;6.024;2023-07-22T12:17:08;5.43;;;2.80;;
52458;SDS011;38372;52.902;6.024;2023-07-22T12:19:34;5.45;;;2.38;;
52458;SDS011;38372;52.902;6.024;2023-07-22T12:22:00;5.63;;;2.53;;
52458;SDS011;38372;52.902;6.024;2023-07-22T12:24:27;6.35;;;3.20;;
52458;SDS011;38372;52.902;6.024;2023-07-22T12:26:53;8.15;;;3.53;;
52458;SDS011;38372;52.902;6.024;2023-07-22T12:29:20;8.05;;;2.58;;
52458;SDS011;38372;52.902;6.024;2023-07-22T12:31:50;5.50;;;2.75;;
52458;SDS011;38372;52.902;6.024;2023-07-22T12:34:17;5.72;;;3.38;;
52458;SDS011;38372;52.902;6.024;2023-07-22T12:36:43;7.85;;;2.30;;
52458;SDS011;38372;52.902;6.024;2023-07-22T12:39:08;8.65;;;2.97;;
52458;SDS011;38372;52.902;6.024;2023-07-22T12:41:34;5.88;;;3.10;;
52458;SDS011;38372;52.902;6.024;2023-07-22T12:44:00;5.28;;;2.85;;
52458;SDS011;38372;52.902;6.024;2023-07-22T12:46:26;6.80;;;2.45;;
52458;SDS011;38372;52.902;6.024;2023-07-22T12:48:52;8.00;;;3.10;;
52458;SDS011;38372;52.902;6.024;2023-07-22T12:51:18;4.95;;;3.10;;
52458;SDS011;38372;52.902;6.024;2023-07-22T12:53:43;6.95;;;3.58;;
52458;SDS011;38372;52.902;6.024;2023-07-22T12:56:09;12.23;;;4.38;;
52458;SDS011;38372;52.902;6.024;2023-07-22T12:58:35;9.98;;;3.60;;
52458;SDS011;38372;52.902;6.024;2023-07-22T13:01:01;8.60;;;3.85;;
52458;SDS011;38372;52.902;6.024;2023-07-22T13:03:27;6.38;;;2.60;;
52458;SDS011;38372;52.902;6.024;2023-07-22T13:05:52;8.05;;;3.60;;
52458;SDS011;38372;52.902;6.024;2023-07-22T13:08:18;6.82;;;3.28;;
52458;SDS011;38372;52.902;6.024;2023-07-22T13:10:44;5.18;;;2.85;;
52458;SDS011;38372;52.902;6.024;2023-07-22T13:13:12;6.68;;;2.85;;
52458;SDS011;38372;52.902;6.024;2023-07-22T13:15:38;8.05;;;3.08;;
52458;SDS011;38372;52.902;6.024;2023-07-22T13:18:03;5.53;;;3.38;;
52458;SDS011;38372;52.902;6.024;2023-07-22T13:20:29;5.00;;;2.28;;
52458;SDS011;38372;52.902;6.024;2023-07-22T13:22:55;4.82;;;2.80;;
52458;SDS011;38372;52.902;6.024;2023-07-22T13:25:21;4.00;;;2.17;;
52458;SDS011;38372;52.902;6.024;2023-07-22T13:27:47;5.95;;;2.72;;
52458;SDS011;38372;52.902;6.024;2023-07-22T13:30:13;5.53;;;1.75;;
52458;SDS011;38372;52.902;6.024;2023-07-22T13:32:39;4.65;;;1.65;;
52458;SDS011;38372;52.902;6.024;2023-07-22T13:35:05;6.40;;;2.70;;
52458;SDS011;38372;52.902;6.024;2023-07-22T13:37:31;2.55;;;1.35;;
52458;SDS011;38372;52.902;6.024;2023-07-22T13:39:57;2.20;;;1.40;;
52458;SDS011;38372;52.902;6.024;2023-07-22T13:42:23;2.80;;;1.50;;
52458;SDS011;38372;52.902;6.024;2023-07-22T13:44:49;3.45;;;1.65;;
52458;SDS011;38372;52.902;6.024;2023-07-22T13:47:15;3.38;;;1.85;;
52458;SDS011;38372;52.902;6.024;2023-07-22T13:49:42;2.25;;;1.02;;
52458;SDS011;38372;52.902;6.024;2023-07-22T13:52:08;3.75;;;0.82;;
52458;SDS011;38372;52.902;6.024;2023-07-22T13:54:34;3.20;;;1.30;;
52458;SDS011;38372;52.902;6.024;2023-07-22T13:57:00;0.68;;;0.40;;
52458;SDS011;38372;52.902;6.024;2023-07-22T13:59:25;1.98;;;0.50;;
52458;SDS011;38372;52.902;6.024;2023-07-22T14:01:51;1.90;;;1.08;;
52458;SDS011;38372;52.902;6.024;2023-07-22T14:04:17;0.55;;;0.38;;
52458;SDS011;38372;52.902;6.024;2023-07-22T14:06:43;1.70;;;0.68;;
52458;SDS011;38372;52.902;6.024;2023-07-22T14:09:09;1.33;;;0.50;;
52458;SDS011;38372;52.902;6.024;2023-07-22T14:11:34;2.45;;;0.52;;
52458;SDS011;38372;52.902;6.024;2023-07-22T14:14:00;0.90;;;0.55;;
52458;SDS011;38372;52.902;6.024;2023-07-22T14:16:26;1.80;;;0.80;;
52458;SDS011;38372;52.902;6.024;2023-07-22T14:18:52;3.15;;;0.70;;
52458;SDS011;38372;52.902;6.024;2023-07-22T14:21:18;1.65;;;0.50;;
52458;SDS011;38372;52.902;6.024;2023-07-22T14:23:44;1.80;;;0.98;;
52458;SDS011;38372;52.902;6.024;2023-07-22T14:26:10;1.70;;;0.50;;
52458;SDS011;38372;52.902;6.024;2023-07-22T14:28:36;2.90;;;1.05;;
52458;SDS011;38372;52.902;6.024;2023-07-22T14:31:02;2.58;;;1.33;;
52458;SDS011;38372;52.902;6.024;2023-07-22T14:33:29;2.53;;;0.98;;
52458;SDS011;38372;52.902;6.024;2023-07-22T14:35:54;2.05;;;1.15;;
52458;SDS011;38372;52.902;6.024;2023-07-22T14:38:21;1.73;;;1.10;;
52458;SDS011;38372;52.902;6.024;2023-07-22T14:40:47;3.65;;;1.00;;
52458;SDS011;38372;52.902;6.024;2023-07-22T14:43:13;3.55;;;1.20;;
52458;SDS011;38372;52.902;6.024;2023-07-22T14:45:39;1.23;;;0.65;;
52458;SDS011;38372;52.902;6.024;2023-07-22T14:48:05;4.53;;;0.82;;
52458;SDS011;38372;52.902;6.024;2023-07-22T14:50:31;1.77;;;0.75;;
52458;SDS011;38372;52.902;6.024;2023-07-22T14:52:56;2.42;;;0.77;;
52458;SDS011;38372;52.902;6.024;2023-07-22T14:55:22;2.13;;;1.15;;
52458;SDS011;38372;52.902;6.024;2023-07-22T14:57:48;1.30;;;0.70;;
52458;SDS011;38372;52.902;6.024;2023-07-22T15:00:14;2.28;;;1.02;;